Main page
METAR-TAF:

METAR-TAF

Airports :

Rush City Regional Airport

Rush City, Minnesota, United States

latitude: 45-41-53N, longitude: 092-57-11W, elevation: 922 ft

Current weather observation

The report was made 14 minutes ago, at 07:35 UTC
Wind 5 mph from the South/Southwest
Temperature 72°F
Humidity 83%
Pressure 29.83 in. Hg
Visibility: 10 miles
Clear sky
thunderstorm in vicinity

METAR: KROS 140735Z AUTO 21004KT 10SM VCTS CLR 22/19 A2983 RMK AO2 LTG DSNT SE AND S T02180191

Time: 02:49 (07:49 UTC)


TAF: missing

Weather observations and forecasts of more than 4000 airports (METAR and TAF reports).

The available stations are represented by yellow and red dots on the map.

Hover mouse over dot to see the name of the station.

Then click to see weather observations and forecasts.

To change the map : click on the green buttons with a black cross to zoom in, on the green button with a dash to zoom out, or on the green arrows for adjacent maps.


METAR-TAF: